createdAt,value
2023-03-10T00:00:05.725Z,1.10
2023-03-10T00:02:34.914Z,1.43
2023-03-10T00:05:03.828Z,1.07
2023-03-10T00:07:31.849Z,1.40
2023-03-10T00:09:59.695Z,1.07
2023-03-10T00:12:27.825Z,1.30
2023-03-10T00:14:56.371Z,1.03
2023-03-10T00:17:25.521Z,1.00
2023-03-10T00:19:53.428Z,1.00
2023-03-10T00:22:21.406Z,1.40
2023-03-10T00:24:50.362Z,1.17
2023-03-10T00:27:18.155Z,1.00
2023-03-10T00:29:46.000Z,1.07
2023-03-10T00:32:13.832Z,0.80
2023-03-10T00:34:43.103Z,1.20
2023-03-10T00:37:13.282Z,0.70
2023-03-10T00:39:41.954Z,0.80
2023-03-10T00:42:09.841Z,0.90
2023-03-10T00:44:37.958Z,1.20
2023-03-10T00:47:05.963Z,1.20
2023-03-10T00:49:33.885Z,1.00
2023-03-10T00:52:03.068Z,1.13
2023-03-10T00:54:30.840Z,0.87
2023-03-10T00:56:58.704Z,1.00
2023-03-10T00:59:27.358Z,0.90
2023-03-10T01:01:55.361Z,1.00
2023-03-10T01:04:23.270Z,0.73
2023-03-10T01:06:51.048Z,1.20
2023-03-10T01:09:20.215Z,1.13
2023-03-10T01:11:49.022Z,0.97
2023-03-10T01:14:17.523Z,1.10
2023-03-10T01:16:45.448Z,1.10
2023-03-10T01:19:13.210Z,1.00
2023-03-10T01:21:41.648Z,1.10
2023-03-10T01:24:14.928Z,0.80
2023-03-10T01:26:44.162Z,0.80
2023-03-10T01:29:11.925Z,0.70
2023-03-10T01:31:41.778Z,1.27
2023-03-10T01:34:09.706Z,1.03
2023-03-10T01:36:37.570Z,0.80
2023-03-10T01:39:05.462Z,1.10
2023-03-10T01:41:33.298Z,1.53
2023-03-10T01:44:04.746Z,1.13
2023-03-10T01:46:45.029Z,1.00
2023-03-10T01:49:18.659Z,1.00
2023-03-10T01:51:51.573Z,0.70
2023-03-10T01:54:23.764Z,1.00
2023-03-10T01:56:53.890Z,1.37
2023-03-10T01:59:24.582Z,0.97
2023-03-10T02:01:53.694Z,0.80
2023-03-10T02:04:28.581Z,1.10
2023-03-10T02:06:57.635Z,1.00
2023-03-10T02:09:26.691Z,0.90
2023-03-10T02:11:56.164Z,0.87
2023-03-10T02:14:25.441Z,1.00
2023-03-10T02:16:53.286Z,0.90
2023-03-10T02:19:36.901Z,0.80
2023-03-10T02:22:07.780Z,0.93
2023-03-10T02:24:44.055Z,0.83
2023-03-10T02:27:17.124Z,0.83
2023-03-10T02:29:58.925Z,0.77
2023-03-10T02:32:29.507Z,0.90
2023-03-10T02:34:57.468Z,0.93
2023-03-10T02:37:29.862Z,0.90
2023-03-10T02:39:58.254Z,1.07
2023-03-10T02:42:31.792Z,0.70
2023-03-10T02:44:59.877Z,1.00
2023-03-10T02:47:30.690Z,0.83
2023-03-10T02:49:58.498Z,0.80
2023-03-10T02:52:32.793Z,0.73
2023-03-10T02:55:00.619Z,1.00
2023-03-10T02:57:29.696Z,1.33
2023-03-10T02:59:57.544Z,0.80
2023-03-10T03:02:25.358Z,0.63
2023-03-10T03:04:53.270Z,0.90
2023-03-10T03:07:21.060Z,1.07
2023-03-10T03:09:48.856Z,0.90
2023-03-10T03:12:16.700Z,0.90
2023-03-10T03:14:45.891Z,1.00
2023-03-10T03:17:13.818Z,1.53
2023-03-10T03:19:41.688Z,1.00
2023-03-10T03:22:09.513Z,0.80
2023-03-10T03:24:37.388Z,1.03
2023-03-10T03:27:06.236Z,0.97
2023-03-10T03:29:34.152Z,0.80
2023-03-10T03:32:03.505Z,1.03
2023-03-10T03:34:31.455Z,1.10
2023-03-10T03:36:59.247Z,1.27
2023-03-10T03:39:27.260Z,1.20
2023-03-10T03:41:57.210Z,1.00
2023-03-10T03:44:25.110Z,0.70
2023-03-10T03:46:52.960Z,1.07
2023-03-10T03:49:22.162Z,1.37
2023-03-10T03:51:50.005Z,0.80
2023-03-10T03:54:17.851Z,1.20
2023-03-10T03:56:45.742Z,1.00
2023-03-10T03:59:13.707Z,1.13
2023-03-10T04:01:41.514Z,0.93
2023-03-10T04:04:09.435Z,1.47
2023-03-10T04:06:38.740Z,1.20
2023-03-10T04:09:06.628Z,0.90
2023-03-10T04:11:34.479Z,0.70
2023-03-10T04:14:02.362Z,1.00
2023-03-10T04:16:30.124Z,0.80
2023-03-10T04:18:57.856Z,1.13
2023-03-10T04:21:25.652Z,1.10
2023-03-10T04:23:54.849Z,1.10
2023-03-10T04:26:22.714Z,0.73
2023-03-10T04:28:50.884Z,1.10
2023-03-10T04:31:19.999Z,1.07
2023-03-10T04:33:48.016Z,1.20
2023-03-10T04:36:16.309Z,1.10
2023-03-10T04:38:44.112Z,1.33
2023-03-10T04:41:13.983Z,1.10
2023-03-10T04:43:43.279Z,0.80
2023-03-10T04:46:12.172Z,0.83
2023-03-10T04:48:40.517Z,0.60
2023-03-10T04:51:10.539Z,0.77
2023-03-10T04:53:38.716Z,0.80
2023-03-10T04:56:11.362Z,0.70
2023-03-10T04:58:40.806Z,0.97
2023-03-10T05:01:10.882Z,0.90
2023-03-10T05:03:38.787Z,0.90
2023-03-10T05:06:11.956Z,0.80
2023-03-10T05:08:39.906Z,0.80
2023-03-10T05:11:08.393Z,0.67
2023-03-10T05:13:36.506Z,0.80
2023-03-10T05:16:06.257Z,0.57
2023-03-10T05:18:34.111Z,0.80
2023-03-10T05:21:01.965Z,1.10
2023-03-10T05:23:29.748Z,0.93
2023-03-10T05:25:57.581Z,0.80
2023-03-10T05:28:25.553Z,0.90
2023-03-10T05:30:53.431Z,0.63
2023-03-10T05:33:22.623Z,0.90
2023-03-10T05:35:50.733Z,1.10
2023-03-10T05:38:19.119Z,1.00
2023-03-10T05:40:46.969Z,0.80
2023-03-10T05:43:17.559Z,0.90
2023-03-10T05:45:45.459Z,0.73
2023-03-10T05:48:13.279Z,0.90
2023-03-10T05:50:42.497Z,0.80
2023-03-10T05:53:10.307Z,1.37
2023-03-10T05:55:38.376Z,0.80
2023-03-10T05:58:06.300Z,0.87
2023-03-10T06:00:34.080Z,1.00
2023-03-10T06:03:02.877Z,1.20
2023-03-10T06:05:30.760Z,1.50
2023-03-10T06:07:59.958Z,1.17
2023-03-10T06:10:27.765Z,1.37
2023-03-10T06:12:56.332Z,0.90
2023-03-10T06:15:24.374Z,1.00
2023-03-10T06:17:52.241Z,1.10
2023-03-10T06:20:20.164Z,0.70
2023-03-10T06:22:48.022Z,0.70
2023-03-10T06:25:17.343Z,0.97
2023-03-10T06:27:45.101Z,1.00
2023-03-10T06:30:13.584Z,1.00
2023-03-10T06:32:41.652Z,1.10
2023-03-10T06:35:11.692Z,1.00
2023-03-10T06:37:39.550Z,1.10
2023-03-10T06:40:10.033Z,0.80
2023-03-10T06:42:39.573Z,0.90
2023-03-10T06:45:09.031Z,1.00
2023-03-10T06:47:37.141Z,0.80
2023-03-10T06:50:06.082Z,1.20
2023-03-10T06:52:34.431Z,0.90
2023-03-10T06:55:02.490Z,0.90
2023-03-10T06:57:30.595Z,1.00
2023-03-10T06:59:59.763Z,0.87
2023-03-10T07:02:27.626Z,0.87
2023-03-10T07:04:55.608Z,0.90
2023-03-10T07:07:23.419Z,0.83
2023-03-10T07:09:51.248Z,0.80
2023-03-10T07:12:19.048Z,1.10
2023-03-10T07:14:46.832Z,0.80
2023-03-10T07:17:16.020Z,1.07
2023-03-10T07:19:44.169Z,1.10
2023-03-10T07:22:12.010Z,1.20
2023-03-10T07:24:42.230Z,0.90
2023-03-10T07:27:10.416Z,1.33
2023-03-10T07:29:38.233Z,1.00
2023-03-10T07:32:06.843Z,0.70
2023-03-10T07:34:36.046Z,1.07
2023-03-10T07:37:03.928Z,1.30
2023-03-10T07:39:31.719Z,0.90
2023-03-10T07:42:00.057Z,0.90
2023-03-10T07:44:27.894Z,1.07
2023-03-10T07:46:55.867Z,1.10
2023-03-10T07:49:23.631Z,1.03
2023-03-10T07:51:52.781Z,1.07
2023-03-10T07:54:20.587Z,1.03
2023-03-10T07:56:50.704Z,1.00
2023-03-10T07:59:19.145Z,0.93
2023-03-10T08:01:46.942Z,1.70
2023-03-10T08:04:14.859Z,0.83
2023-03-10T08:06:42.695Z,1.13
2023-03-10T08:09:11.810Z,1.13
2023-03-10T08:11:39.630Z,0.83
2023-03-10T08:14:07.439Z,1.00
2023-03-10T08:16:35.644Z,0.97
2023-03-10T08:19:03.468Z,0.80
2023-03-10T08:21:31.328Z,1.03
2023-03-10T08:23:59.098Z,1.17
2023-03-10T08:26:28.362Z,1.00
2023-03-10T08:28:56.243Z,1.40
2023-03-10T08:31:24.090Z,1.20
2023-03-10T08:33:55.560Z,1.20
2023-03-10T08:36:25.168Z,1.17
2023-03-10T08:38:54.597Z,1.10
2023-03-10T08:41:24.575Z,1.23
2023-03-10T08:43:55.769Z,1.00
2023-03-10T08:46:25.594Z,1.10
2023-03-10T08:48:54.347Z,1.00
2023-03-10T08:51:22.784Z,1.53
2023-03-10T08:53:52.064Z,1.67
2023-03-10T08:56:21.810Z,1.20
2023-03-10T08:58:49.734Z,1.40
2023-03-10T09:01:19.343Z,1.20
2023-03-10T09:03:47.674Z,0.93
2023-03-10T09:06:16.100Z,0.97
2023-03-10T09:08:44.462Z,0.97
2023-03-10T09:11:16.973Z,1.20
2023-03-10T09:13:44.879Z,1.13
2023-03-10T09:16:13.344Z,1.47
2023-03-10T09:18:42.813Z,0.87
2023-03-10T09:21:13.093Z,1.20
2023-03-10T09:23:43.139Z,1.07
2023-03-10T09:26:11.354Z,0.87
2023-03-10T09:28:39.317Z,1.20
2023-03-10T09:31:08.522Z,0.90
2023-03-10T09:33:36.776Z,0.90
2023-03-10T09:36:07.599Z,0.90
2023-03-10T09:38:36.173Z,0.77
2023-03-10T09:41:18.793Z,1.20
2023-03-10T09:43:55.110Z,1.10
2023-03-10T09:46:29.625Z,1.00
2023-03-10T09:49:03.835Z,0.90
2023-03-10T09:51:33.083Z,1.23
2023-03-10T09:54:14.855Z,0.83
2023-03-10T09:56:42.860Z,0.80
2023-03-10T09:59:17.369Z,1.03
2023-03-10T10:01:48.242Z,0.80
2023-03-10T10:04:20.806Z,0.70
2023-03-10T10:06:50.936Z,0.73
2023-03-10T10:09:27.189Z,0.60
2023-03-10T10:11:55.940Z,0.80
2023-03-10T10:14:30.338Z,0.60
2023-03-10T10:17:06.966Z,0.60
2023-03-10T10:19:37.071Z,0.60
2023-03-10T10:22:15.786Z,0.60
2023-03-10T10:24:58.942Z,0.50
2023-03-10T10:27:26.747Z,0.77
2023-03-10T10:29:54.668Z,0.57
2023-03-10T10:32:22.790Z,0.50
2023-03-10T10:34:50.677Z,0.50
2023-03-10T10:37:29.239Z,0.50
2023-03-10T10:39:58.782Z,0.50
2023-03-10T10:42:28.965Z,0.50
2023-03-10T10:44:58.691Z,0.50
2023-03-10T10:47:29.656Z,0.40
2023-03-10T10:50:11.119Z,0.50
2023-03-10T10:52:40.312Z,0.50
2023-03-10T10:55:27.130Z,0.40
2023-03-10T10:57:58.111Z,0.50
2023-03-10T11:00:30.328Z,0.40
2023-03-10T11:02:58.338Z,0.50
2023-03-10T11:05:33.672Z,0.50
2023-03-10T11:08:17.997Z,0.73
2023-03-10T11:10:52.205Z,0.60
2023-03-10T11:13:24.033Z,0.40
2023-03-10T11:15:59.090Z,0.50
2023-03-10T11:18:31.245Z,0.50
2023-03-10T11:21:04.715Z,0.50
2023-03-10T11:23:41.850Z,0.70
2023-03-10T11:26:21.130Z,0.50
2023-03-10T11:28:54.115Z,0.63
2023-03-10T11:31:34.137Z,0.50
2023-03-10T11:34:15.482Z,0.70
2023-03-10T11:36:56.259Z,0.57
2023-03-10T11:39:36.808Z,0.60
2023-03-10T11:42:10.238Z,0.70
2023-03-10T11:44:43.965Z,0.70
2023-03-10T11:47:20.680Z,0.50
2023-03-10T11:49:58.591Z,0.40
2023-03-10T11:52:29.445Z,0.50
2023-03-10T11:55:05.611Z,0.70
2023-03-10T11:57:40.800Z,0.73
2023-03-10T12:00:18.115Z,0.50
2023-03-10T12:02:58.735Z,0.57
2023-03-10T12:05:27.918Z,0.80
2023-03-10T12:08:01.446Z,0.63
2023-03-10T12:10:31.377Z,0.80
2023-03-10T12:13:00.700Z,0.60
2023-03-10T12:15:33.716Z,0.50
2023-03-10T12:18:01.664Z,0.93
2023-03-10T12:20:30.519Z,0.70
2023-03-10T12:23:00.235Z,0.60
2023-03-10T12:25:49.347Z,0.43
2023-03-10T12:28:26.700Z,0.57
2023-03-10T12:30:57.539Z,0.57
2023-03-10T12:33:51.372Z,0.47
2023-03-10T12:36:36.762Z,0.63
2023-03-10T12:39:26.416Z,0.50
2023-03-10T12:41:56.657Z,0.50
2023-03-10T12:44:50.654Z,0.50
2023-03-10T12:47:26.322Z,0.60
2023-03-10T12:49:58.235Z,0.47
2023-03-10T12:52:35.344Z,0.60
2023-03-10T12:55:08.641Z,0.50
2023-03-10T12:57:41.947Z,0.53
2023-03-10T13:00:25.421Z,0.43
2023-03-10T13:02:58.783Z,0.50
2023-03-10T13:05:29.284Z,0.50
2023-03-10T13:08:03.240Z,0.50
2023-03-10T13:10:34.046Z,0.50
2023-03-10T13:13:06.402Z,0.53
2023-03-10T13:15:35.836Z,0.70
2023-03-10T13:18:19.370Z,0.50
2023-03-10T13:20:48.035Z,0.60
2023-03-10T13:23:22.658Z,0.40
2023-03-10T13:25:55.778Z,0.50
2023-03-10T13:28:25.897Z,0.50
2023-03-10T13:31:06.985Z,0.57
2023-03-10T13:33:42.994Z,0.50
2023-03-10T13:36:32.892Z,0.50
2023-03-10T13:39:03.247Z,0.50
2023-03-10T13:41:40.551Z,0.60
2023-03-10T13:44:20.132Z,0.50
2023-03-10T13:46:50.646Z,0.50
2023-03-10T13:49:21.074Z,0.40
2023-03-10T13:51:56.666Z,0.50
2023-03-10T13:54:26.824Z,0.50
2023-03-10T13:56:57.999Z,0.50
2023-03-10T13:59:30.029Z,0.40
2023-03-10T14:01:59.627Z,0.40
2023-03-10T14:04:43.504Z,0.50
2023-03-10T14:07:13.181Z,0.50
2023-03-10T14:09:41.858Z,0.47
2023-03-10T14:12:10.376Z,0.40
2023-03-10T14:14:41.640Z,0.50
2023-03-10T14:17:10.841Z,0.50
2023-03-10T14:19:48.001Z,0.50
2023-03-10T14:22:40.575Z,0.60
2023-03-10T14:25:11.917Z,0.40
2023-03-10T14:27:42.274Z,0.40
2023-03-10T14:30:21.288Z,0.50
2023-03-10T14:32:49.281Z,0.50
2023-03-10T14:35:20.116Z,0.50
2023-03-10T14:37:48.038Z,0.50
2023-03-10T14:40:20.769Z,0.40
2023-03-10T14:42:50.420Z,0.50
2023-03-10T14:45:29.582Z,0.50
2023-03-10T14:47:59.154Z,0.50
2023-03-10T14:50:28.770Z,0.50
2023-03-10T14:52:56.759Z,0.50
2023-03-10T14:55:25.195Z,0.50
2023-03-10T14:57:58.149Z,0.47
2023-03-10T15:00:27.855Z,0.60
2023-03-10T15:02:55.883Z,0.40
2023-03-10T15:05:31.859Z,0.50
2023-03-10T15:08:06.499Z,0.50
2023-03-10T15:10:36.984Z,0.60
2023-03-10T15:13:06.252Z,0.50
2023-03-10T15:15:40.377Z,0.60
2023-03-10T15:18:10.596Z,0.50
2023-03-10T15:20:41.044Z,0.50
2023-03-10T15:23:08.871Z,0.50
2023-03-10T15:25:36.791Z,0.50
2023-03-10T15:28:05.011Z,0.40
2023-03-10T15:30:36.304Z,0.50
2023-03-10T15:33:05.439Z,0.50
2023-03-10T15:35:33.361Z,0.40
2023-03-10T15:38:01.401Z,0.50
2023-03-10T15:40:31.705Z,0.50
2023-03-10T15:43:00.331Z,0.40
2023-03-10T15:45:30.227Z,0.50
2023-03-10T15:48:00.190Z,0.50
2023-03-10T15:50:28.086Z,0.40
2023-03-10T15:52:57.188Z,0.50
2023-03-10T15:55:25.449Z,0.50
2023-03-10T15:57:53.838Z,0.80
2023-03-10T16:00:23.347Z,0.70
2023-03-10T16:02:51.714Z,0.60
2023-03-10T16:05:21.335Z,0.67
2023-03-10T16:07:49.331Z,0.60
2023-03-10T16:10:20.259Z,0.60
2023-03-10T16:12:48.547Z,0.50
2023-03-10T16:15:18.368Z,0.40
2023-03-10T16:17:48.528Z,0.60
2023-03-10T16:20:19.034Z,0.57
2023-03-10T16:22:48.218Z,0.40
2023-03-10T16:25:17.759Z,0.60
2023-03-10T16:27:46.916Z,0.50
2023-03-10T16:30:16.359Z,0.50
2023-03-10T16:32:45.220Z,0.40
2023-03-10T16:35:13.390Z,0.50
2023-03-10T16:37:41.231Z,0.50
2023-03-10T16:40:12.126Z,0.97
2023-03-10T16:42:43.141Z,0.50
2023-03-10T16:45:11.802Z,0.47
2023-03-10T16:47:40.962Z,0.47
2023-03-10T16:50:12.430Z,0.60
2023-03-10T16:52:42.131Z,0.50
2023-03-10T16:55:16.789Z,0.50
2023-03-10T16:57:45.102Z,0.50
2023-03-10T17:00:14.020Z,0.50
2023-03-10T17:02:41.805Z,0.40
2023-03-10T17:05:10.062Z,0.50
2023-03-10T17:07:46.453Z,0.50
2023-03-10T17:10:19.027Z,0.50
2023-03-10T17:12:46.875Z,0.50
2023-03-10T17:15:14.770Z,0.60
2023-03-10T17:17:42.718Z,0.60
2023-03-10T17:20:11.650Z,0.50
2023-03-10T17:22:39.420Z,0.50
2023-03-10T17:25:07.610Z,0.60
2023-03-10T17:27:36.751Z,0.47
2023-03-10T17:30:05.075Z,0.73
2023-03-10T17:32:32.869Z,0.67
2023-03-10T17:35:00.809Z,0.60
2023-03-10T17:37:28.589Z,0.50
2023-03-10T17:39:56.472Z,0.53
2023-03-10T17:42:25.186Z,0.60
2023-03-10T17:44:54.308Z,0.60
2023-03-10T17:47:22.183Z,0.70
2023-03-10T17:49:50.102Z,0.57
2023-03-10T17:52:17.915Z,0.67
2023-03-10T17:54:46.048Z,0.83
2023-03-10T17:57:13.825Z,1.00
2023-03-10T17:59:41.770Z,0.83
2023-03-10T18:02:12.590Z,0.90
2023-03-10T18:04:45.014Z,0.60
2023-03-10T18:07:12.900Z,0.70
2023-03-10T18:09:40.769Z,0.60
2023-03-10T18:12:08.897Z,0.60
2023-03-10T18:14:36.688Z,0.90
2023-03-10T18:17:04.512Z,1.10
2023-03-10T18:19:33.674Z,0.80
2023-03-10T18:22:05.424Z,1.20
2023-03-10T18:24:33.170Z,0.90
2023-03-10T18:27:01.670Z,0.97
2023-03-10T18:29:29.475Z,1.20
2023-03-10T18:31:57.260Z,1.27
2023-03-10T18:34:25.119Z,0.90
2023-03-10T18:36:54.707Z,1.27
2023-03-10T18:39:22.555Z,0.83
2023-03-10T18:41:50.369Z,1.10
2023-03-10T18:44:18.122Z,1.00
2023-03-10T18:46:46.010Z,0.80
2023-03-10T18:49:13.873Z,1.07
2023-03-10T18:51:41.615Z,0.80
2023-03-10T18:54:10.804Z,0.60
2023-03-10T18:56:38.621Z,0.60
2023-03-10T18:59:06.540Z,0.60
2023-03-10T19:01:34.396Z,0.77
2023-03-10T19:04:02.318Z,0.60
2023-03-10T19:06:31.627Z,0.60
2023-03-10T19:08:59.638Z,0.70
2023-03-10T19:11:35.302Z,0.90
2023-03-10T19:14:03.743Z,0.70
2023-03-10T19:16:31.885Z,0.87
2023-03-10T19:19:00.009Z,0.50
2023-03-10T19:21:28.293Z,0.70
2023-03-10T19:23:56.144Z,1.37
2023-03-10T19:26:23.974Z,0.60
2023-03-10T19:28:53.994Z,0.60
2023-03-10T19:31:21.834Z,0.60
2023-03-10T19:33:49.649Z,0.73
2023-03-10T19:36:17.565Z,0.63
2023-03-10T19:38:47.250Z,0.83
2023-03-10T19:41:16.603Z,0.73
2023-03-10T19:43:44.828Z,1.20
2023-03-10T19:46:15.629Z,1.07
2023-03-10T19:48:45.414Z,0.77
2023-03-10T19:51:20.883Z,0.77
2023-03-10T19:53:49.393Z,1.07
2023-03-10T19:56:18.758Z,1.00
2023-03-10T19:58:48.468Z,1.40
2023-03-10T20:01:20.344Z,0.80
2023-03-10T20:03:48.230Z,1.20
2023-03-10T20:06:16.050Z,1.37
2023-03-10T20:08:43.801Z,1.50
2023-03-10T20:11:14.523Z,1.00
2023-03-10T20:13:43.802Z,0.87
2023-03-10T20:16:13.920Z,0.93
2023-03-10T20:18:43.204Z,1.03
2023-03-10T20:21:12.055Z,1.03
2023-03-10T20:23:39.899Z,0.70
2023-03-10T20:26:10.257Z,0.50
2023-03-10T20:28:39.538Z,1.50
2023-03-10T20:31:07.524Z,1.00
2023-03-10T20:33:35.830Z,1.03
2023-03-10T20:36:08.511Z,1.20
2023-03-10T20:38:36.304Z,0.93
2023-03-10T20:41:04.178Z,0.73
2023-03-10T20:43:31.935Z,1.17
2023-03-10T20:45:59.772Z,0.80
2023-03-10T20:48:27.667Z,0.80
2023-03-10T20:50:56.109Z,1.00
2023-03-10T20:53:26.036Z,0.77
2023-03-10T20:55:53.811Z,1.00
2023-03-10T20:58:22.749Z,1.43
2023-03-10T21:00:50.850Z,0.80
2023-03-10T21:03:19.373Z,0.50
2023-03-10T21:05:47.212Z,1.23
2023-03-10T21:08:15.016Z,1.50
2023-03-10T21:10:46.750Z,1.00
2023-03-10T21:13:15.949Z,1.27
2023-03-10T21:15:43.702Z,1.10
2023-03-10T21:18:11.460Z,0.70
2023-03-10T21:20:39.197Z,1.60
2023-03-10T21:23:07.015Z,0.90
2023-03-10T21:25:34.795Z,1.17
2023-03-10T21:28:04.335Z,1.10
2023-03-10T21:30:33.987Z,0.70
2023-03-10T21:33:01.887Z,0.60
2023-03-10T21:35:34.015Z,1.00
2023-03-10T21:38:01.851Z,0.60
2023-03-10T21:40:30.199Z,0.60
2023-03-10T21:42:57.951Z,0.50
2023-03-10T21:45:30.178Z,0.60
2023-03-10T21:47:58.032Z,1.53
2023-03-10T21:50:25.990Z,0.60
2023-03-10T21:52:53.976Z,0.50
2023-03-10T21:55:25.517Z,0.80
2023-03-10T21:57:53.505Z,0.80
2023-03-10T22:00:23.235Z,0.60
2023-03-10T22:02:53.722Z,1.03
2023-03-10T22:05:22.590Z,1.33
2023-03-10T22:07:50.843Z,0.70
2023-03-10T22:10:19.187Z,0.60
2023-03-10T22:12:47.849Z,1.10
2023-03-10T22:15:23.300Z,0.90
2023-03-10T22:17:53.530Z,0.70
2023-03-10T22:20:23.825Z,1.07
2023-03-10T22:22:51.968Z,1.00
2023-03-10T22:25:20.489Z,0.80
2023-03-10T22:27:50.998Z,1.10
2023-03-10T22:30:19.351Z,0.90
2023-03-10T22:32:47.516Z,0.70
2023-03-10T22:35:17.558Z,0.87
2023-03-10T22:37:45.630Z,1.17
2023-03-10T22:40:16.207Z,0.70
2023-03-10T22:42:45.590Z,0.83
2023-03-10T22:45:18.955Z,0.70
2023-03-10T22:47:47.329Z,0.80
2023-03-10T22:50:18.627Z,0.70
2023-03-10T22:52:46.476Z,0.70
2023-03-10T22:55:15.747Z,0.80
2023-03-10T22:57:43.530Z,0.90
2023-03-10T23:02:53.788Z,0.80
2023-03-10T23:05:23.016Z,0.80
2023-03-10T23:07:51.282Z,0.90
2023-03-10T23:10:21.730Z,0.77
2023-03-10T23:12:50.484Z,0.83
2023-03-10T23:15:27.931Z,0.70
2023-03-10T23:17:56.498Z,0.90
2023-03-10T23:20:28.870Z,0.80
2023-03-10T23:22:58.353Z,0.70
2023-03-10T23:25:28.921Z,0.90
2023-03-10T23:27:56.859Z,0.70
2023-03-10T23:30:24.835Z,0.80
2023-03-10T23:32:53.528Z,0.90
2023-03-10T23:35:23.879Z,0.70
2023-03-10T23:37:53.026Z,0.77
2023-03-10T23:40:22.651Z,0.73
2023-03-10T23:42:50.694Z,0.73
2023-03-10T23:45:20.184Z,0.90
2023-03-10T23:47:49.460Z,0.77
2023-03-10T23:50:20.194Z,0.60
2023-03-10T23:52:48.359Z,0.70
2023-03-10T23:55:21.646Z,0.80
2023-03-10T23:57:49.458Z,0.90
